Time;durP1;ratioP1;P1;durP2;ratioP2;P2;SDS_P1;SDS_P2;PMS_P1;PMS_P2;Temp;Humidity;BMP_temperature;BMP_pressure;BME280_temperature;BME280_humidity;BME280_pressure;Samples;Min_cycle;Max_cycle;Signal;HPM_P1;HPM_P2
2023/01/29 00:05:08;;;;;;;29.98;15.63;;;-0.20;99.90;;;;;;15200209;23;20105;-35
2023/01/29 00:11:28;;;;;;;29.50;15.65;;;-0.20;99.90;;;;;;15197529;23;20025;-36
2023/01/29 00:17:30;;;;;;;27.13;15.05;;;-0.30;99.90;;;;;;15202559;23;20025;-36
2023/01/29 00:23:32;;;;;;;29.02;14.60;;;-0.30;99.90;;;;;;15200339;23;20024;-37
2023/01/29 00:29:34;;;;;;;27.77;14.57;;;-0.20;99.90;;;;;;15200817;23;20022;-35
2023/01/29 00:35:39;;;;;;;25.20;14.13;;;-0.20;99.90;;;;;;15201966;23;20042;-35
2023/01/29 00:48:02;;;;;;;25.65;14.05;;;-0.20;99.90;;;;;;15196991;23;20021;-35
2023/01/29 00:54:08;;;;;;;26.10;13.98;;;-0.20;99.90;;;;;;15199980;23;20355;-36
2023/01/29 01:00:13;;;;;;;24.10;13.63;;;-0.10;99.90;;;;;;15192509;23;20037;-36
2023/01/29 01:06:16;;;;;;;27.45;14.18;;;-0.10;99.90;;;;;;15198052;23;20045;-36
2023/01/29 01:12:18;;;;;;;23.48;13.27;;;-0.20;99.90;;;;;;15202494;23;20029;-36
2023/01/29 01:18:21;;;;;;;25.00;13.93;;;-0.20;99.90;;;;;;15196820;23;20052;-36
2023/01/29 01:24:23;;;;;;;25.90;14.10;;;-0.20;99.90;;;;;;15201404;23;20057;-36
2023/01/29 01:30:26;;;;;;;26.88;14.23;;;-0.20;99.90;;;;;;15202037;23;20411;-36
2023/01/29 01:36:28;;;;;;;25.55;13.70;;;-0.30;99.90;;;;;;15209227;23;20032;-36
2023/01/29 01:42:30;;;;;;;24.05;13.60;;;-0.20;99.90;;;;;;15210288;23;20018;-36
2023/01/29 01:48:32;;;;;;;24.48;13.65;;;-0.20;99.90;;;;;;15205928;23;20021;-36
2023/01/29 01:54:34;;;;;;;24.77;13.27;;;-0.20;99.90;;;;;;15209843;23;20097;-36
2023/01/29 02:00:38;;;;;;;24.42;12.88;;;-0.10;99.90;;;;;;15204682;23;20030;-36
2023/01/29 02:13:01;;;;;;;27.05;13.98;;;-0.10;99.90;;;;;;15207134;23;20273;-36
2023/01/29 02:19:32;;;;;;;28.02;15.20;;;-0.10;99.90;;;;;;15207495;23;20026;-36
2023/01/29 02:25:49;;;;;;;28.20;15.05;;;-0.10;99.90;;;;;;15174717;23;20026;-36
2023/01/29 02:32:13;;;;;;;28.05;15.95;;;-0.20;99.90;;;;;;15207847;23;20029;-37
2023/01/29 02:38:34;;;;;;;28.83;15.15;;;-0.20;99.90;;;;;;15201685;23;20097;-36
2023/01/29 02:44:55;;;;;;;36.63;16.63;;;-0.20;99.90;;;;;;15201549;23;20121;-36
2023/01/29 02:51:06;;;;;;;32.53;16.63;;;-0.20;99.90;;;;;;15202065;23;20018;-36
2023/01/29 02:57:22;;;;;;;29.15;15.73;;;-0.20;99.90;;;;;;15203608;23;20022;-36
2023/01/29 03:03:41;;;;;;;29.70;15.68;;;-0.20;99.90;;;;;;15200223;23;20029;-36
2023/01/29 03:09:48;;;;;;;28.85;15.75;;;-0.20;99.90;;;;;;15202191;23;20057;-36
2023/01/29 03:16:00;;;;;;;34.35;17.35;;;-0.20;99.90;;;;;;15197350;23;20603;-37
2023/01/29 03:22:04;;;;;;;32.33;16.85;;;-0.20;99.90;;;;;;15203975;23;20033;-36
2023/01/29 03:34:33;;;;;;;38.30;19.52;;;-0.20;99.90;;;;;;15198714;23;20079;-36
2023/01/29 03:40:51;;;;;;;36.58;18.38;;;-0.20;99.90;;;;;;15197126;23;20125;-37
2023/01/29 03:47:13;;;;;;;38.00;19.98;;;-0.20;99.90;;;;;;15207254;23;20018;-36
2023/01/29 03:53:29;;;;;;;40.50;20.88;;;-0.30;99.90;;;;;;15204008;23;20044;-36
2023/01/29 03:59:58;;;;;;;40.40;20.63;;;-0.30;99.90;;;;;;15203128;23;20108;-36
2023/01/29 04:06:09;;;;;;;39.53;20.10;;;-0.30;99.90;;;;;;15176212;23;20367;-37
2023/01/29 04:12:17;;;;;;;42.30;20.48;;;-0.30;99.90;;;;;;15203421;23;20346;-37
2023/01/29 04:18:19;;;;;;;42.50;21.00;;;-0.30;99.90;;;;;;15203299;23;20092;-36
2023/01/29 04:24:21;;;;;;;43.03;21.83;;;-0.30;99.90;;;;;;15202277;23;20124;-36
2023/01/29 04:30:35;;;;;;;44.80;20.92;;;-0.30;99.90;;;;;;15175516;23;20025;-36
2023/01/29 04:37:03;;;;;;;46.55;22.02;;;-0.30;99.90;;;;;;15203435;23;20157;-37
2023/01/29 04:43:12;;;;;;;44.75;23.33;;;-0.30;99.90;;;;;;15201060;23;20141;-37
2023/01/29 04:49:46;;;;;;;42.28;21.92;;;-0.40;99.90;;;;;;15202966;23;20104;-36
2023/01/29 04:56:02;;;;;;;39.38;20.50;;;-0.40;99.90;;;;;;15196635;23;20488;-36
2023/01/29 05:02:08;;;;;;;42.33;21.65;;;-0.30;99.90;;;;;;15196272;23;20026;-37
2023/01/29 05:08:14;;;;;;;42.70;21.52;;;-0.30;99.90;;;;;;15196045;23;20149;-36
2023/01/29 05:14:18;;;;;;;40.45;20.92;;;-0.20;99.90;;;;;;15197266;23;20034;-36
2023/01/29 05:20:20;;;;;;;41.40;21.00;;;-0.30;99.90;;;;;;15199758;23;20037;-37
2023/01/29 05:32:43;;;;;;;42.75;21.52;;;-0.30;99.90;;;;;;15198783;23;20633;-36
2023/01/29 05:38:46;;;;;;;42.47;20.83;;;-0.20;99.90;;;;;;15196684;23;20025;-37
2023/01/29 05:44:48;;;;;;;44.47;21.67;;;-0.20;99.90;;;;;;15174588;23;20026;-37
2023/01/29 05:50:50;;;;;;;42.78;21.17;;;-0.30;99.90;;;;;;15202256;23;20029;-37
2023/01/29 05:56:52;;;;;;;45.60;21.55;;;-0.30;99.90;;;;;;15198335;23;20029;-36
2023/01/29 06:02:55;;;;;;;42.08;21.08;;;-0.20;99.90;;;;;;15195491;23;20025;-37
2023/01/29 06:08:57;;;;;;;43.80;21.58;;;-0.20;99.90;;;;;;15200656;23;20085;-37
2023/01/29 06:14:59;;;;;;;41.80;20.73;;;-0.20;99.90;;;;;;15199551;23;20030;-37
2023/01/29 06:21:03;;;;;;;47.97;23.20;;;-0.20;99.90;;;;;;15205315;23;20029;-36
2023/01/29 06:27:05;;;;;;;47.17;23.40;;;-0.20;99.90;;;;;;15204791;23;20085;-36
2023/01/29 06:33:07;;;;;;;42.55;21.50;;;-0.30;99.90;;;;;;15206835;23;20112;-36
2023/01/29 06:39:09;;;;;;;46.08;22.52;;;-0.30;99.90;;;;;;15201600;23;20081;-36
2023/01/29 06:45:11;;;;;;;43.10;21.52;;;-0.30;99.90;;;;;;15201375;23;20049;-37
2023/01/29 06:51:13;;;;;;;44.42;21.90;;;-0.20;99.90;;;;;;15201504;23;20049;-37
2023/01/29 06:57:15;;;;;;;45.50;22.98;;;-0.20;99.90;;;;;;15178715;23;20058;-37
2023/01/29 07:03:18;;;;;;;46.47;22.35;;;-0.30;99.90;;;;;;15202862;23;20104;-37
2023/01/29 07:09:20;;;;;;;47.17;23.58;;;-0.30;99.90;;;;;;15205988;23;20025;-36
2023/01/29 07:15:22;;;;;;;52.08;24.67;;;-0.40;99.90;;;;;;15203720;23;20037;-37
2023/01/29 07:21:24;;;;;;;51.97;25.50;;;-0.40;99.90;;;;;;15202411;23;20022;-36
2023/01/29 07:27:27;;;;;;;51.65;24.92;;;-0.50;99.90;;;;;;15205227;23;20069;-37
2023/01/29 07:33:29;;;;;;;54.90;25.60;;;-0.50;99.90;;;;;;15201280;23;20104;-37
2023/01/29 07:39:31;;;;;;;51.10;24.23;;;-0.50;99.90;;;;;;15204894;23;20026;-37
2023/01/29 07:45:35;;;;;;;55.30;25.33;;;-0.60;99.90;;;;;;15174318;23;20025;-36
2023/01/29 07:51:37;;;;;;;51.83;23.58;;;-0.60;99.90;;;;;;15197552;23;20030;-36
2023/01/29 07:57:39;;;;;;;50.97;23.70;;;-0.60;99.90;;;;;;15174389;23;20037;-36
2023/01/29 08:03:41;;;;;;;53.78;24.05;;;-0.50;99.90;;;;;;15191846;23;20033;-36
2023/01/29 08:09:43;;;;;;;52.42;24.80;;;-0.50;99.90;;;;;;15200179;23;20088;-37
2023/01/29 08:15:48;;;;;;;50.50;25.08;;;-0.30;99.90;;;;;;15199328;23;20029;-37
2023/01/29 08:21:50;;;;;;;49.65;24.20;;;-0.30;99.90;;;;;;15201420;23;20022;-37
2023/01/29 08:27:52;;;;;;;51.28;24.38;;;-0.20;99.90;;;;;;15201753;23;20384;-36
2023/01/29 08:33:54;;;;;;;50.05;23.48;;;-0.20;99.90;;;;;;15195192;23;20061;-37
2023/01/29 08:39:56;;;;;;;53.70;25.08;;;-0.20;99.90;;;;;;15201334;23;20045;-37
2023/01/29 08:45:58;;;;;;;56.78;25.75;;;-0.20;99.90;;;;;;15198506;23;20018;-36
2023/01/29 08:52:00;;;;;;;51.85;23.58;;;-0.10;99.90;;;;;;15199423;23;20116;-37
2023/01/29 08:58:09;;;;;;;51.43;24.07;;;-0.10;99.90;;;;;;15172554;23;20077;-37
2023/01/29 09:04:11;;;;;;;47.53;22.05;;;-0.10;99.90;;;;;;15194718;23;20025;-36
2023/01/29 09:10:14;;;;;;;50.85;24.88;;;0.00;99.90;;;;;;15199739;23;20029;-36
2023/01/29 09:16:16;;;;;;;47.45;24.15;;;0.00;99.90;;;;;;15198716;23;20081;-36
2023/01/29 09:22:19;;;;;;;48.70;23.05;;;0.00;99.90;;;;;;15197607;23;20022;-37
2023/01/29 09:28:22;;;;;;;48.60;23.15;;;0.10;99.90;;;;;;15200384;23;20022;-36
2023/01/29 09:34:24;;;;;;;51.38;24.65;;;0.10;99.90;;;;;;15199717;23;20157;-37
2023/01/29 09:40:37;;;;;;;48.67;24.42;;;0.30;99.90;;;;;;15201200;23;20026;-37
2023/01/29 09:46:42;;;;;;;47.95;23.63;;;0.30;99.90;;;;;;15200411;23;20022;-36
2023/01/29 09:53:03;;;;;;;50.20;23.98;;;0.40;99.90;;;;;;15202472;23;20355;-36
2023/01/29 09:59:09;;;;;;;47.63;24.38;;;0.40;99.90;;;;;;15204557;23;20096;-37
2023/01/29 10:05:53;;;;;;;49.78;24.30;;;0.60;99.90;;;;;;15199707;23;20026;-37
2023/01/29 10:12:24;;;;;;;50.58;23.02;;;0.60;99.90;;;;;;15147462;23;20395;-37
2023/01/29 10:18:56;;;;;;;47.03;22.70;;;0.70;99.90;;;;;;15203285;23;20026;-37
2023/01/29 10:25:08;;;;;;;49.55;23.92;;;0.70;99.90;;;;;;15179466;23;20037;-37
2023/01/29 10:31:27;;;;;;;48.42;24.35;;;0.70;99.90;;;;;;15201187;23;20017;-37
2023/01/29 10:37:40;;;;;;;48.17;24.50;;;0.70;99.90;;;;;;15199427;23;20104;-37
2023/01/29 10:44:18;;;;;;;50.38;25.05;;;0.70;99.90;;;;;;15202666;23;20042;-37
2023/01/29 10:50:43;;;;;;;46.05;24.45;;;0.60;99.90;;;;;;15183612;23;20503;-37
2023/01/29 10:57:14;;;;;;;47.35;23.50;;;0.70;99.90;;;;;;15196265;23;20029;-37
2023/01/29 11:03:28;;;;;;;47.30;23.48;;;0.70;99.90;;;;;;15095101;23;20061;-36
2023/01/29 11:09:59;;;;;;;45.87;22.13;;;0.60;99.90;;;;;;15203867;23;20022;-37
2023/01/29 11:16:04;;;;;;;47.35;23.67;;;0.70;99.90;;;;;;15196565;23;20462;-37
2023/01/29 11:22:12;;;;;;;50.60;23.88;;;0.70;99.90;;;;;;15204068;23;20025;-37
2023/01/29 11:28:38;;;;;;;48.58;22.85;;;0.70;99.90;;;;;;15203954;23;20022;-37
2023/01/29 11:35:04;;;;;;;42.70;22.15;;;0.70;99.90;;;;;;15200039;23;20032;-37
2023/01/29 11:41:17;;;;;;;39.05;20.95;;;0.80;99.90;;;;;;15203183;23;20113;-36
2023/01/29 11:47:24;;;;;;;45.53;22.95;;;0.90;99.90;;;;;;15198778;23;20399;-37
2023/01/29 11:53:38;;;;;;;41.88;21.23;;;1.00;99.90;;;;;;15198565;23;20081;-37
2023/01/29 11:59:47;;;;;;;36.50;20.47;;;1.10;99.90;;;;;;15200781;23;20104;-37
2023/01/29 12:05:59;;;;;;;42.72;21.92;;;1.10;99.90;;;;;;15197590;23;20029;-37
2023/01/29 12:12:29;;;;;;;42.47;22.85;;;1.00;99.90;;;;;;15199817;23;20422;-37
2023/01/29 12:18:38;;;;;;;43.67;22.50;;;1.00;99.90;;;;;;15202277;23;20026;-37
2023/01/29 12:24:57;;;;;;;42.97;21.27;;;1.10;99.90;;;;;;15202421;23;20353;-36
2023/01/29 12:31:18;;;;;;;41.65;20.52;;;1.10;99.90;;;;;;15201573;23;20082;-37
2023/01/29 12:37:38;;;;;;;42.13;20.85;;;1.20;99.90;;;;;;15200927;23;20112;-36
2023/01/29 12:43:49;;;;;;;41.55;20.83;;;1.20;99.90;;;;;;15198047;23;20021;-36
2023/01/29 12:49:55;;;;;;;41.92;19.95;;;1.20;99.90;;;;;;15197597;23;20022;-37
2023/01/29 12:56:12;;;;;;;38.40;19.23;;;1.30;99.90;;;;;;15197950;23;20474;-37
2023/01/29 13:02:39;;;;;;;36.45;18.55;;;1.30;99.90;;;;;;15198241;23;20455;-37
2023/01/29 13:08:48;;;;;;;37.17;17.48;;;1.30;99.90;;;;;;15196535;23;20058;-37
2023/01/29 13:14:55;;;;;;;35.50;17.58;;;1.40;99.90;;;;;;15198444;23;20022;-36
2023/01/29 13:20:59;;;;;;;38.75;17.25;;;1.40;99.90;;;;;;15199767;23;20025;-36
2023/01/29 13:27:03;;;;;;;36.77;18.07;;;1.40;99.90;;;;;;15203113;23;20026;-36
2023/01/29 13:33:08;;;;;;;34.40;17.83;;;1.50;99.90;;;;;;15200312;23;20246;-37
2023/01/29 13:39:44;;;;;;;36.03;17.88;;;1.40;99.90;;;;;;15198782;23;20022;-37
2023/01/29 13:45:47;;;;;;;39.42;17.88;;;1.50;99.90;;;;;;15165162;23;20104;-37
2023/01/29 13:51:49;;;;;;;36.33;18.08;;;1.50;99.90;;;;;;15197828;23;20025;-36
2023/01/29 13:57:55;;;;;;;34.00;17.77;;;1.60;99.90;;;;;;15194511;23;20153;-37
2023/01/29 14:03:57;;;;;;;37.97;18.63;;;1.60;99.90;;;;;;15193289;23;20018;-37
2023/01/29 14:10:21;;;;;;;34.15;16.90;;;1.50;99.90;;;;;;15171197;23;20134;-37
2023/01/29 14:16:22;;;;;;;35.20;17.35;;;1.50;99.90;;;;;;15134363;23;20026;-37
2023/01/29 14:22:27;;;;;;;33.92;17.08;;;1.40;99.90;;;;;;15193905;23;20033;-37
2023/01/29 14:28:32;;;;;;;33.67;17.17;;;1.40;99.90;;;;;;15176478;23;20055;-36
2023/01/29 14:34:47;;;;;;;30.75;15.40;;;1.50;99.90;;;;;;15172981;23;20041;-37
2023/01/29 14:40:50;;;;;;;33.65;17.60;;;1.40;99.90;;;;;;15200251;23;20026;-37
2023/01/29 14:46:52;;;;;;;32.75;17.58;;;1.50;99.90;;;;;;15204892;23;20096;-36
2023/01/29 14:53:15;;;;;;;34.08;18.20;;;1.40;99.90;;;;;;15203340;23;20026;-36
2023/01/29 14:59:27;;;;;;;35.38;16.92;;;1.50;99.90;;;;;;15203518;23;20366;-37
2023/01/29 15:05:36;;;;;;;36.75;17.98;;;1.40;99.90;;;;;;15124954;23;20023;-36
2023/01/29 15:12:20;;;;;;;37.97;17.55;;;1.40;99.90;;;;;;15126411;23;20093;-37
2023/01/29 15:18:38;;;;;;;38.10;18.75;;;1.40;99.90;;;;;;15111037;23;20022;-36
2023/01/29 15:24:42;;;;;;;36.13;17.85;;;1.30;99.90;;;;;;15129605;23;20026;-37
2023/01/29 15:30:44;;;;;;;39.33;18.90;;;1.30;99.90;;;;;;15132035;23;20033;-36
2023/01/29 15:36:48;;;;;;;40.58;19.58;;;1.30;99.90;;;;;;15129635;23;20107;-36
2023/01/29 15:42:49;;;;;;;39.90;19.05;;;1.20;99.90;;;;;;15129137;23;20534;-37
2023/01/29 15:48:54;;;;;;;38.78;19.50;;;1.30;99.90;;;;;;15129679;23;20121;-36
2023/01/29 15:55:04;;;;;;;41.55;19.27;;;1.30;99.90;;;;;;15126062;23;20105;-37
2023/01/29 16:01:08;;;;;;;40.13;18.63;;;1.20;99.90;;;;;;15123726;23;20026;-37
2023/01/29 16:07:10;;;;;;;41.45;19.17;;;1.20;99.90;;;;;;15200060;23;20049;-37
2023/01/29 16:13:24;;;;;;;36.38;19.27;;;1.20;99.90;;;;;;15199560;23;20022;-37
2023/01/29 16:19:28;;;;;;;42.40;20.33;;;1.10;99.90;;;;;;15203041;23;20110;-36
2023/01/29 16:25:32;;;;;;;39.47;19.45;;;1.10;99.90;;;;;;15202466;23;20092;-36
2023/01/29 16:31:36;;;;;;;36.85;18.65;;;1.10;99.90;;;;;;15203582;23;20018;-36
2023/01/29 16:37:38;;;;;;;33.33;17.93;;;1.10;99.90;;;;;;15202589;23;20100;-37
2023/01/29 16:43:43;;;;;;;37.53;19.58;;;1.10;99.90;;;;;;15202000;23;20352;-36
2023/01/29 16:49:48;;;;;;;;;;;1.10;99.90;;;;;;15201145;23;20045;-37
2023/01/29 16:55:51;;;;;;;37.30;19.27;;;1.10;99.90;;;;;;15200616;23;19921;-37
2023/01/29 17:01:54;;;;;;;38.00;18.02;;;1.10;99.90;;;;;;15199740;23;20029;-37
2023/01/29 17:07:58;;;;;;;38.88;18.50;;;1.10;99.90;;;;;;15195082;23;20481;-37
2023/01/29 17:14:00;;;;;;;36.65;19.10;;;1.20;99.90;;;;;;15200711;23;20037;-41
2023/01/29 17:20:15;;;;;;;38.92;17.77;;;1.10;99.90;;;;;;15201306;23;20032;-36
2023/01/29 17:26:18;;;;;;;28.30;15.30;;;1.20;99.90;;;;;;15200990;23;20028;-37
2023/01/29 17:32:21;;;;;;;36.38;16.98;;;1.10;99.90;;;;;;15174919;23;20507;-37
2023/01/29 17:38:24;;;;;;;38.65;18.63;;;1.20;99.90;;;;;;15201404;23;20033;-37
2023/01/29 17:44:27;;;;;;;38.50;19.52;;;1.20;99.90;;;;;;15196716;23;20153;-37
2023/01/29 17:50:31;;;;;;;35.33;19.05;;;1.20;99.90;;;;;;15199629;23;20028;-36
2023/01/29 17:56:33;;;;;;;36.33;19.40;;;1.20;99.90;;;;;;15200565;23;20108;-36
2023/01/29 18:02:35;;;;;;;34.10;18.67;;;1.10;99.90;;;;;;15198887;23;20033;-37
2023/01/29 18:08:38;;;;;;;38.95;19.90;;;1.10;99.90;;;;;;15199349;23;20097;-36
2023/01/29 18:14:40;;;;;;;42.50;20.15;;;1.00;99.90;;;;;;15199425;23;20526;-36
2023/01/29 18:20:43;;;;;;;43.17;20.80;;;0.90;99.90;;;;;;15204533;23;20483;-37
2023/01/29 18:26:47;;;;;;;45.15;21.48;;;0.80;99.90;;;;;;15206212;23;20022;-36
2023/01/29 18:32:49;;;;;;;46.83;23.27;;;0.70;99.90;;;;;;15205933;23;20077;-36
2023/01/29 18:38:51;;;;;;;42.78;21.75;;;0.70;99.90;;;;;;15206806;23;20037;-36
2023/01/29 18:44:53;;;;;;;44.97;21.90;;;0.70;99.90;;;;;;15204351;23;20418;-36
2023/01/29 18:50:55;;;;;;;43.33;21.65;;;0.70;99.90;;;;;;15206329;23;20424;-36
2023/01/29 18:56:57;;;;;;;45.60;22.02;;;0.70;99.90;;;;;;15201943;23;20026;-36
2023/01/29 19:03:19;;;;;;;50.40;22.73;;;0.70;99.90;;;;;;15199574;23;20026;-37
2023/01/29 19:09:21;;;;;;;48.20;22.17;;;0.80;99.90;;;;;;15204907;23;20025;-37
2023/01/29 19:15:23;;;;;;;45.50;21.63;;;0.80;99.90;;;;;;15202380;23;20029;-37
2023/01/29 19:21:25;;;;;;;46.45;21.77;;;0.80;99.90;;;;;;15205817;23;20034;-36
2023/01/29 19:27:29;;;;;;;46.67;22.77;;;0.80;99.90;;;;;;15205218;23;20045;-36
2023/01/29 19:33:31;;;;;;;44.33;22.33;;;0.80;99.90;;;;;;15199854;23;20467;-37
2023/01/29 19:39:33;;;;;;;45.92;22.95;;;0.80;99.90;;;;;;15204396;23;20141;-36
2023/01/29 19:45:35;;;;;;;38.80;18.63;;;0.80;99.90;;;;;;15196789;23;20026;-36
2023/01/29 19:51:51;;;;;;;41.80;20.08;;;0.90;99.90;;;;;;15202859;23;20018;-36
2023/01/29 19:57:56;;;;;;;42.83;20.70;;;0.90;99.90;;;;;;15176830;23;20399;-37
2023/01/29 20:03:58;;;;;;;45.85;21.65;;;0.90;99.90;;;;;;15201192;23;20037;-36
2023/01/29 20:10:01;;;;;;;46.95;22.13;;;0.80;99.90;;;;;;15173405;23;20026;-36
2023/01/29 20:16:04;;;;;;;48.08;22.70;;;0.90;99.90;;;;;;15175071;23;20022;-36
2023/01/29 20:22:06;;;;;;;46.83;24.33;;;1.00;99.90;;;;;;15204466;23;20459;-37
2023/01/29 20:28:12;;;;;;;46.00;22.80;;;1.00;99.90;;;;;;15203022;23;20032;-36
2023/01/29 20:34:14;;;;;;;44.03;22.23;;;1.10;99.90;;;;;;15202413;23;20371;-37
2023/01/29 20:40:16;;;;;;;39.30;19.60;;;1.20;99.90;;;;;;15202518;23;20030;-37
2023/01/29 20:46:19;;;;;;;49.05;22.77;;;1.20;99.90;;;;;;15201993;23;20037;-35
2023/01/29 20:52:21;;;;;;;44.15;20.90;;;1.20;99.90;;;;;;15203087;23;20541;-37
2023/01/29 20:58:23;;;;;;;40.33;20.20;;;1.30;99.90;;;;;;15201840;23;20033;-37
2023/01/29 21:04:26;;;;;;;42.65;21.08;;;1.30;99.90;;;;;;15169903;23;20022;-36
2023/01/29 21:10:28;;;;;;;46.83;21.52;;;1.30;99.90;;;;;;15176680;23;20049;-37
2023/01/29 21:16:30;;;;;;;43.45;21.10;;;1.40;99.90;;;;;;15197708;23;20477;-37
2023/01/29 21:22:32;;;;;;;44.85;20.63;;;1.40;99.90;;;;;;15203558;23;20101;-37
2023/01/29 21:28:35;;;;;;;44.08;20.85;;;1.40;99.90;;;;;;15202239;23;20077;-36
2023/01/29 21:34:37;;;;;;;43.45;22.08;;;1.50;99.90;;;;;;15202695;23;20033;-37
2023/01/29 21:40:39;;;;;;;38.28;18.45;;;1.50;99.90;;;;;;15203572;23;20834;-37
2023/01/29 21:46:41;;;;;;;40.75;19.88;;;1.50;99.90;;;;;;15174332;23;20099;-37
2023/01/29 21:52:43;;;;;;;41.85;22.08;;;1.50;99.90;;;;;;15204181;23;20018;-36
2023/01/29 21:58:49;;;;;;;43.83;21.17;;;1.60;99.90;;;;;;15178079;23;20351;-36
2023/01/29 22:04:52;;;;;;;37.58;18.27;;;1.60;99.90;;;;;;15200605;23;20022;-36
2023/01/29 22:10:54;;;;;;;38.67;19.25;;;1.70;99.90;;;;;;15204348;23;20061;-36
2023/01/29 22:16:56;;;;;;;42.38;19.92;;;1.70;99.90;;;;;;15206125;23;20025;-36
2023/01/29 22:22:59;;;;;;;37.15;19.13;;;1.80;99.90;;;;;;15204663;23;20022;-37
2023/01/29 22:29:01;;;;;;;41.63;20.08;;;1.80;99.90;;;;;;15182408;23;20025;-37
2023/01/29 22:35:04;;;;;;;43.17;21.15;;;1.90;99.90;;;;;;15199777;23;20105;-36
2023/01/29 22:41:06;;;;;;;41.58;20.75;;;1.90;99.90;;;;;;15202382;23;20026;-36
2023/01/29 22:47:08;;;;;;;46.72;21.25;;;2.00;99.90;;;;;;15207714;23;20249;-37
2023/01/29 22:53:10;;;;;;;45.75;21.70;;;2.00;99.90;;;;;;15203659;23;20022;-37
2023/01/29 22:59:12;;;;;;;48.70;22.92;;;2.00;99.90;;;;;;15178330;23;20033;-37
2023/01/29 23:05:16;;;;;;;45.60;20.30;;;2.00;99.90;;;;;;15171841;23;20026;-37
2023/01/29 23:11:20;;;;;;;49.50;22.30;;;2.00;99.90;;;;;;15200179;23;20076;-37
2023/01/29 23:17:22;;;;;;;50.80;22.90;;;1.90;99.90;;;;;;15177607;23;20026;-36
2023/01/29 23:23:26;;;;;;;47.55;21.95;;;1.90;99.90;;;;;;15203907;23;20045;-37
2023/01/29 23:29:28;;;;;;;43.42;19.65;;;1.90;99.90;;;;;;15205923;23;20103;-36
2023/01/29 23:35:30;;;;;;;44.63;21.33;;;1.90;99.90;;;;;;15202466;23;20036;-37
2023/01/29 23:41:32;;;;;;;45.95;21.83;;;2.10;99.90;;;;;;15204822;23;20045;-37
2023/01/29 23:47:34;;;;;;;47.10;22.08;;;2.10;99.90;;;;;;15175154;23;20026;-36
2023/01/29 23:53:37;;;;;;;45.97;22.80;;;2.20;99.90;;;;;;15204501;23;20488;-37
2023/01/29 23:59:39;;;;;;;49.13;21.85;;;2.20;99.90;;;;;;15205044;23;20037;-36
